Atlantic Mine, Michigan
Current Conditions -  °F | °C
As of 12:53 PM on Tuesday 21 Oct 2014 (Local Time) from KCMX Reporting Station
Clear Clear  
Wind Chill:   Ceiling: Unl
Heat Index:   Visibility: 10mi
Dew Point: -2°   Wind: 7mph
Humidity: 55%   Direction: 100°E
Pressure: 30.27"   Gusts: NA
Location:  47.1°N, 88.63°W
Report Text: KCMX 211653Z AUTO 10006KT 10SM CLR 07/M02 A3027 RMK AO2 SLP261 T00671017
Loading
Personal Weather Stations






























Interactive Weather Map
Tropical Storm Tracking
New forecast layout! Learn more

10-Day Weather Forecast

Advertisements
Track Severe Weather on mobile